Time;durP1;ratioP1;P1;durP2;ratioP2;P2;SDS_P1;SDS_P2;PMS_P1;PMS_P2;Temp;Humidity;BMP_temperature;BMP_pressure;BME280_temperature;BME280_humidity;BME280_pressure;Samples;Min_cycle;Max_cycle;Signal;HPM_P1;HPM_P2
2022/06/12 00:00:33;;;;;;;11.80;6.65;;;;;;;14.42;64.36;101019.28;3479172;79;21241;-79
2022/06/12 00:05:30;;;;;;;8.90;6.35;;;;;;;14.33;64.53;101026.63;3504108;79;21477;-79
2022/06/12 00:10:21;;;;;;;8.63;6.70;;;;;;;14.30;64.63;101020.06;3549874;79;20931;-79
2022/06/12 00:15:18;;;;;;;7.83;6.53;;;;;;;14.20;64.62;101024.38;3523439;79;20952;-79
2022/06/12 00:20:13;;;;;;;9.15;6.62;;;;;;;14.11;64.89;101022.56;3547946;79;21422;-79
2022/06/12 00:25:09;;;;;;;7.25;6.65;;;;;;;14.01;64.96;101012.89;3521019;80;22071;-79
2022/06/12 00:29:59;;;;;;;6.85;5.65;;;;;;;13.88;64.91;101009.75;3531261;80;20966;-79
2022/06/12 00:34:54;;;;;;;6.53;5.65;;;;;;;13.75;64.98;101005.27;3519653;79;20916;-79
2022/06/12 00:39:49;;;;;;;5.87;5.25;;;;;;;13.67;65.20;100999.98;3549537;79;20912;-79
2022/06/12 00:44:42;;;;;;;7.95;5.60;;;;;;;13.64;65.39;101003.44;3474699;79;20955;-79
2022/06/12 00:49:42;;;;;;;5.15;4.72;;;;;;;13.63;65.61;101002.11;3462217;79;21306;-79
2022/06/12 00:54:35;;;;;;;5.12;4.58;;;;;;;13.53;65.64;101005.08;3526377;79;20919;-79
2022/06/12 00:59:50;;;;;;;8.93;4.62;;;;;;;13.46;65.73;101005.88;3458683;81;21547;-79
2022/06/12 01:09:55;;;;;;;4.75;4.25;;;;;;;13.42;65.93;101010.20;3464752;79;20990;-81
2022/06/12 01:14:51;;;;;;;8.45;5.83;;;;;;;13.39;66.01;101010.60;3458534;79;20962;-82
2022/06/12 01:19:49;;;;;;;6.25;4.87;;;;;;;13.34;66.05;101006.22;3484892;79;21442;-81
2022/06/12 01:25:06;;;;;;;6.72;4.97;;;;;;;13.30;66.25;101006.13;3479168;79;21224;-81
2022/06/12 01:30:21;;;;;;;6.47;4.28;;;;;;;13.19;66.26;101002.09;3478720;81;22020;-81
2022/06/12 01:35:24;;;;;;;4.87;4.30;;;;;;;13.15;66.32;101006.84;3479015;81;20947;-81
2022/06/12 01:40:30;;;;;;;5.12;4.72;;;;;;;13.08;66.33;101005.89;3482956;81;21382;-81
2022/06/12 01:45:59;;;;;;;5.78;4.50;;;;;;;13.05;66.45;101002.38;3493499;79;21584;-81
2022/06/12 01:51:05;;;;;;;4.40;4.00;;;;;;;12.99;66.48;101001.01;3477134;79;20967;-81
2022/06/12 01:56:17;;;;;;;6.42;5.28;;;;;;;12.91;66.59;100999.19;3533674;80;20979;-81
2022/06/12 02:01:23;;;;;;;9.48;4.55;;;;;;;12.81;66.74;100996.02;3511366;80;20925;-81
2022/06/12 02:06:20;;;;;;;5.25;4.40;;;;;;;12.72;66.62;101001.12;3494652;80;21473;-81
2022/06/12 02:16:26;;;;;;;5.90;4.70;;;;;;;12.76;66.93;100995.08;3498164;80;20968;-81
2022/06/12 02:21:31;;;;;;;6.17;5.35;;;;;;;12.69;66.80;100988.89;3530507;80;20939;-81
2022/06/12 02:26:28;;;;;;;6.50;4.53;;;;;;;12.62;66.96;100999.23;3510068;80;21441;-81
2022/06/12 02:31:27;;;;;;;5.78;4.70;;;;;;;12.57;67.00;100992.64;3539977;80;28947;-81
2022/06/12 02:36:26;;;;;;;5.97;4.83;;;;;;;12.51;67.10;100991.27;3523786;80;21407;-81
2022/06/12 02:41:26;;;;;;;5.90;4.65;;;;;;;12.58;67.25;100996.58;3498066;80;20967;-81
2022/06/12 02:46:52;;;;;;;5.45;4.95;;;;;;;12.58;67.25;101004.41;3503952;80;21094;-81
2022/06/12 02:52:13;;;;;;;8.40;5.08;;;;;;;12.57;67.20;101002.67;3507047;80;21521;-81
2022/06/12 02:57:28;;;;;;;5.22;4.75;;;;;;;12.56;67.21;101003.52;3469622;81;21202;-81
2022/06/12 03:02:36;;;;;;;5.75;5.25;;;;;;;12.50;67.23;101005.16;3445038;81;20986;-81
2022/06/12 03:07:30;;;;;;;7.35;5.55;;;;;;;12.47;67.15;101003.39;3448888;81;20951;-81
2022/06/12 03:12:21;;;;;;;4.87;4.47;;;;;;;12.75;67.27;101005.95;3436837;81;20950;-81
2022/06/12 03:17:13;;;;;;;5.83;5.05;;;;;;;13.77;66.77;100998.31;3456543;81;21539;-81
2022/06/12 03:22:57;;;;;;;5.17;4.78;;;;;;;14.76;65.54;100988.95;3469713;81;22025;-81
2022/06/12 03:28:03;;;;;;;5.80;5.25;;;;;;;15.62;64.34;100990.45;3473619;81;21054;-82
2022/06/12 03:33:15;;;;;;;6.90;5.50;;;;;;;16.92;62.34;100988.95;3353612;83;20987;-82
2022/06/12 03:38:21;;;;;;;5.65;5.20;;;;;;;17.59;60.65;100985.45;3360379;83;21092;-82
2022/06/12 03:43:17;;;;;;;5.37;4.90;;;;;;;17.15;59.94;100973.92;3312806;83;20979;-82
2022/06/12 03:48:19;;;;;;;7.33;5.55;;;;;;;16.62;60.14;100982.91;3379374;83;21037;-82
2022/06/12 03:53:31;;;;;;;5.75;5.22;;;;;;;16.25;60.47;100993.50;3362656;82;20971;-82
2022/06/12 03:58:28;;;;;;;7.00;6.40;;;;;;;15.53;61.49;100994.38;3334507;82;21027;-81
2022/06/12 04:03:24;;;;;;;6.45;5.92;;;;;;;15.08;62.52;100996.05;3350654;83;21000;-81
2022/06/12 04:08:26;;;;;;;6.92;6.22;;;;;;;14.69;63.58;101004.19;3391539;81;21074;-81
2022/06/12 04:13:20;;;;;;;6.60;6.00;;;;;;;14.53;64.41;100995.80;3495105;81;20992;-81
2022/06/12 04:18:13;;;;;;;7.58;6.87;;;;;;;14.46;65.20;100998.36;3440846;81;21010;-81
2022/06/12 04:23:13;;;;;;;8.50;7.67;;;;;;;14.43;65.78;100998.77;3491760;81;21314;-81
2022/06/12 04:28:09;;;;;;;8.43;6.97;;;;;;;14.45;66.52;100995.73;3454215;81;20913;-81
2022/06/12 04:33:27;;;;;;;8.93;7.60;;;;;;;14.43;66.97;101004.91;3463185;81;20943;-81
2022/06/12 04:38:20;;;;;;;11.40;8.95;;;;;;;14.54;67.54;101007.98;3504263;80;21269;-81
2022/06/12 04:43:11;;;;;;;8.08;7.37;;;;;;;14.56;67.89;101004.94;3491179;81;20952;-81
2022/06/12 04:48:05;;;;;;;8.78;7.87;;;;;;;14.68;68.16;101007.66;3467877;81;20977;-81
2022/06/12 04:52:56;;;;;;;8.45;6.97;;;;;;;14.82;68.67;101004.66;3440746;81;20947;-81
2022/06/12 04:57:48;;;;;;;10.95;7.85;;;;;;;15.09;68.99;101003.46;3482800;79;21205;-81
2022/06/12 05:02:39;;;;;;;9.63;8.60;;;;;;;15.46;69.64;101007.03;3490122;79;21443;-82
2022/06/12 05:07:30;;;;;;;10.20;7.97;;;;;;;15.88;69.89;101006.67;3583920;79;20973;-82
2022/06/12 05:12:21;;;;;;;7.05;6.35;;;;;;;16.42;69.60;100997.41;3531281;79;21488;-82
2022/06/12 05:17:16;;;;;;;7.30;6.60;;;;;;;16.90;69.17;100994.62;3506301;79;20966;-82
2022/06/12 05:22:10;;;;;;;12.58;5.55;;;;;;;17.21;68.85;100995.34;3490188;79;21457;-82
2022/06/12 05:27:06;;;;;;;5.47;4.90;;;;;;;17.57;67.70;100993.35;3553696;79;21501;-82
2022/06/12 05:31:57;;;;;;;4.60;4.17;;;;;;;17.80;67.54;100993.63;3512577;79;20971;-81
2022/06/12 05:36:50;;;;;;;4.33;3.27;;;;;;;18.00;66.44;101002.68;3564301;79;20938;-82
2022/06/12 05:41:41;;;;;;;3.58;3.12;;;;;;;18.82;64.56;100993.48;3507120;79;20978;-82
2022/06/12 05:46:34;;;;;;;3.77;2.45;;;;;;;19.36;63.58;101004.14;3531529;79;21476;-82
2022/06/12 05:51:25;;;;;;;4.17;2.60;;;;;;;19.72;62.09;101009.73;3507926;79;21064;-82
2022/06/12 05:56:20;;;;;;;2.90;2.50;;;;;;;20.24;61.16;101005.81;3530442;79;20944;-82
2022/06/12 06:01:15;;;;;;;3.37;2.47;;;;;;;19.99;61.26;101004.50;3456899;81;21030;-82
2022/06/12 06:06:09;;;;;;;3.65;2.52;;;;;;;19.88;60.90;101006.89;3428663;81;20991;-82
2022/06/12 06:11:01;;;;;;;3.47;2.27;;;;;;;19.86;60.31;101004.73;3441143;81;20975;-82
2022/06/12 06:15:52;;;;;;;5.15;2.92;;;;;;;19.98;60.00;101009.80;3503784;81;21286;-82
2022/06/12 06:20:44;;;;;;;4.00;2.60;;;;;;;20.05;59.91;101007.48;3541185;79;20940;-82
2022/06/12 06:25:38;;;;;;;3.67;2.65;;;;;;;20.15;59.85;101006.84;3456927;81;21007;-81
2022/06/12 06:30:30;;;;;;;3.92;2.50;;;;;;;20.52;58.99;101003.06;3509495;81;20960;-82
2022/06/12 06:35:22;;;;;;;6.25;2.58;;;;;;;20.94;58.66;101003.13;3506704;81;21458;-82
2022/06/12 06:40:16;;;;;;;3.60;2.90;;;;;;;21.29;58.17;101001.45;3506738;81;21103;-79
2022/06/12 06:50:21;;;;;;;3.55;3.25;;;;;;;21.80;57.10;101001.61;3467008;81;20976;-79
2022/06/12 06:55:12;;;;;;;5.22;3.77;;;;;;;22.12;56.37;101006.97;3481604;80;20963;-79
2022/06/12 07:00:08;;;;;;;2.50;1.90;;;;;;;22.72;55.25;100996.94;3534055;80;20951;-79
2022/06/12 07:05:00;;;;;;;4.13;3.13;;;;;;;22.63;55.17;100990.59;3466257;80;20996;-79
2022/06/12 07:09:51;;;;;;;3.65;2.42;;;;;;;22.67;55.47;100982.95;3503849;82;21256;-79
2022/06/12 07:14:42;;;;;;;4.10;2.30;;;;;;;22.79;54.71;100991.88;3533664;80;20990;-79
2022/06/12 07:19:34;;;;;;;3.15;2.15;;;;;;;22.84;54.04;100985.98;3531807;80;20955;-79
2022/06/12 07:24:26;;;;;;;2.67;2.10;;;;;;;22.78;53.80;100978.20;3505896;80;20939;-79
2022/06/12 07:29:21;;;;;;;2.40;1.95;;;;;;;24.93;50.26;100967.42;3487706;81;21454;-80
2022/06/12 07:34:13;;;;;;;2.25;1.90;;;;;;;29.03;46.06;100961.95;3504387;80;20991;-81
2022/06/12 07:39:08;;;;;;;4.65;1.60;;;;;;;32.15;42.04;100968.38;3532228;80;21506;-81
2022/06/12 07:44:00;;;;;;;1.80;1.70;;;;;;;34.48;38.33;100960.01;3448036;82;21462;-81
2022/06/12 07:48:51;;;;;;;5.62;1.70;;;;;;;36.42;36.45;100956.45;3566290;80;20913;-82
2022/06/12 07:53:43;;;;;;;1.82;1.70;;;;;;;38.04;34.60;100955.17;3447853;80;21512;-82
2022/06/12 07:58:35;;;;;;;1.62;1.52;;;;;;;38.78;32.48;100948.02;3549788;80;21530;-83
2022/06/12 08:03:27;;;;;;;3.22;1.90;;;;;;;37.83;31.42;100952.17;3435631;80;20963;-83
2022/06/12 08:08:19;;;;;;;3.35;1.70;;;;;;;36.22;32.03;100955.02;3483108;80;20983;-83
2022/06/12 08:13:11;;;;;;;7.47;1.70;;;;;;;34.96;31.90;100947.22;3455667;80;20988;-83
2022/06/12 08:18:04;;;;;;;1.90;1.65;;;;;;;32.88;33.86;100946.60;3462898;80;21100;-82
2022/06/12 08:23:26;;;;;;;2.58;1.80;;;;;;;30.51;35.24;100945.16;3477273;80;21010;-81
2022/06/12 08:28:00;;;;;;;4.72;1.90;;;;;;;28.67;36.43;100950.98;3473719;80;21002;-81
2022/06/12 08:32:54;;;;;;;2.62;1.90;;;;;;;27.46;38.05;100950.17;3481079;80;20928;-82
2022/06/12 08:37:45;;;;;;;1.98;1.20;;;;;;;26.65;39.08;100941.13;3458429;80;20995;-81
2022/06/12 08:42:43;;;;;;;2.25;1.90;;;;;;;26.19;39.88;100945.38;3481569;80;49473;-82
2022/06/12 08:48:01;;;;;;;2.67;1.80;;;;;;;25.86;40.21;100943.25;3511287;80;21006;-81
2022/06/12 08:53:07;;;;;;;2.85;1.95;;;;;;;25.91;41.16;100944.84;3532618;80;20967;-81
2022/06/12 08:58:18;;;;;;;6.08;2.67;;;;;;;26.38;40.69;100940.54;3504435;80;25551;-81
2022/06/12 09:03:21;;;;;;;2.05;1.85;;;;;;;27.89;39.19;100942.63;3502511;80;20912;-81
2022/06/12 09:08:26;;;;;;;3.37;1.92;;;;;;;28.11;39.27;100933.89;3521227;80;21028;-81
2022/06/12 09:13:28;;;;;;;3.97;2.10;;;;;;;29.13;38.06;100932.83;3525731;80;21265;-81
2022/06/12 09:18:43;;;;;;;3.08;1.82;;;;;;;29.04;37.23;100928.86;3530782;80;20940;-81
2022/06/12 09:24:19;;;;;;;2.20;2.00;;;;;;;29.35;36.63;100914.61;3490477;80;20944;-82
2022/06/12 09:29:47;;;;;;;2.45;2.17;;;;;;;29.35;36.85;100907.03;3497081;80;21390;-82
2022/06/12 09:34:50;;;;;;;3.42;1.90;;;;;;;29.55;36.57;100901.37;3375223;84;21198;-82
2022/06/12 09:40:07;;;;;;;4.25;1.98;;;;;;;30.68;35.89;100885.92;3255922;85;21585;-82
2022/06/12 09:45:16;;;;;;;2.45;2.22;;;;;;;30.86;36.00;100893.73;3268729;85;20995;-81
2022/06/12 09:50:27;;;;;;;3.67;2.10;;;;;;;29.35;37.35;100888.28;3290946;85;21023;-81
2022/06/12 09:55:38;;;;;;;2.62;2.00;;;;;;;30.38;36.30;100880.22;3193465;87;21075;-82
2022/06/12 10:00:59;;;;;;;5.30;2.67;;;;;;;31.28;35.93;100878.42;3216786;87;21523;-81
2022/06/12 10:06:04;;;;;;;2.90;2.40;;;;;;;30.17;36.53;100873.05;3198194;87;21617;-81
2022/06/12 10:11:18;;;;;;;2.80;2.50;;;;;;;28.67;37.71;100871.63;3266824;86;21049;-81
2022/06/12 10:16:33;;;;;;;2.77;2.12;;;;;;;27.66;39.48;100875.23;3312497;85;21553;-81
2022/06/12 10:21:27;;;;;;;3.65;2.47;;;;;;;27.06;40.07;100877.37;3359036;84;21442;-81
2022/06/12 10:26:26;;;;;;;2.40;2.20;;;;;;;29.20;38.45;100853.43;3337911;84;21091;-81
2022/06/12 10:31:20;;;;;;;2.72;1.90;;;;;;;30.62;36.24;100856.81;3462944;80;20967;-81
2022/06/12 10:36:33;;;;;;;2.50;2.30;;;;;;;29.17;37.56;100853.63;3508783;80;20935;-81
2022/06/12 10:41:28;;;;;;;2.20;2.08;;;;;;;29.53;37.22;100844.34;3494964;80;20935;-81
2022/06/12 10:46:28;;;;;;;3.93;2.60;;;;;;;28.78;37.72;100837.57;3536165;79;21528;-81
2022/06/12 10:51:25;;;;;;;2.35;2.15;;;;;;;29.50;37.95;100835.16;3541911;80;21157;-81
2022/06/12 10:56:27;;;;;;;3.20;2.22;;;;;;;30.22;35.90;100832.02;3510590;79;20981;-81
2022/06/12 11:01:55;;;;;;;3.75;2.50;;;;;;;29.76;36.05;100830.03;3484417;79;20990;-81
2022/06/12 11:07:27;;;;;;;4.50;2.27;;;;;;;28.52;37.57;100833.17;3494307;79;20927;-81
2022/06/12 11:13:06;;;;;;;3.70;2.92;;;;;;;27.50;39.14;100834.25;3538315;79;22080;-81
2022/06/12 11:18:14;;;;;;;6.50;3.30;;;;;;;26.84;40.24;100833.08;3515052;79;21508;-81
2022/06/12 11:23:49;;;;;;;10.48;4.10;;;;;;;26.29;41.17;100827.70;3474707;79;20942;-81
2022/06/12 11:29:02;;;;;;;4.60;4.08;;;;;;;26.21;42.35;100826.73;3398058;82;20983;-81
2022/06/12 11:34:08;;;;;;;6.62;4.33;;;;;;;26.47;43.20;100820.19;3379470;81;20982;-81
2022/06/12 11:39:30;;;;;;;6.10;4.03;;;;;;;27.66;41.88;100808.46;3430485;81;20990;-81
2022/06/12 11:44:41;;;;;;;5.20;4.08;;;;;;;28.24;42.17;100803.59;3397034;82;21748;-81
2022/06/12 11:49:58;;;;;;;3.47;3.22;;;;;;;28.86;41.22;100804.52;3424154;82;21035;-81
2022/06/12 11:55:24;;;;;;;2.95;2.58;;;;;;;29.38;40.69;100804.61;3383226;81;20979;-81
2022/06/12 12:00:27;;;;;;;;;;;;;;;29.57;37.55;100800.34;3368214;82;20965;-81
2022/06/12 12:05:35;;;;;;;4.30;2.65;;;;;;;29.58;36.80;100786.00;3503734;80;21892;-81
2022/06/12 12:10:56;;;;;;;3.25;2.65;;;;;;;29.89;37.45;100789.48;3551097;80;21945;-82
2022/06/12 12:16:01;;;;;;;3.08;2.55;;;;;;;30.02;36.80;100782.36;3520061;80;21470;-81
2022/06/12 12:20:54;;;;;;;3.15;2.85;;;;;;;30.00;35.89;100778.92;3501989;80;27384;-81
2022/06/12 12:26:05;;;;;;;3.00;2.80;;;;;;;29.96;36.46;100776.06;3483192;80;20940;-81
2022/06/12 12:31:06;;;;;;;3.98;3.30;;;;;;;29.96;36.17;100768.48;3519956;80;21010;-81
2022/06/12 12:41:15;;;;;;;2.77;2.58;;;;;;;30.15;37.18;100762.81;3503942;80;21066;-81
2022/06/12 12:46:07;;;;;;;3.10;2.70;;;;;;;30.27;36.22;100753.98;3517912;80;21089;-81
2022/06/12 12:50:58;;;;;;;3.83;2.80;;;;;;;30.28;35.97;100755.71;3486256;80;20945;-81
2022/06/12 12:56:09;;;;;;;7.30;3.20;;;;;;;29.59;36.07;100749.36;3511858;80;20916;-81
2022/06/12 13:01:06;;;;;;;3.67;2.90;;;;;;;29.63;36.45;100743.69;3487719;80;21103;-81
2022/06/12 13:06:18;;;;;;;3.42;2.80;;;;;;;29.80;35.70;100741.83;3461990;81;21228;-81
2022/06/12 13:11:24;;;;;;;4.65;3.40;;;;;;;29.56;35.55;100739.67;3423604;80;21062;-81
2022/06/12 13:17:01;;;;;;;4.20;2.50;;;;;;;29.78;36.16;100728.98;3467983;81;20963;-81
2022/06/12 13:22:28;;;;;;;4.67;3.22;;;;;;;29.98;35.47;100735.28;3473529;81;20958;-80
2022/06/12 13:27:31;;;;;;;3.75;2.83;;;;;;;29.58;36.12;100727.08;3342045;83;20943;-81
2022/06/12 13:32:33;;;;;;;5.15;2.72;;;;;;;29.90;35.96;100728.20;3348980;84;21575;-81
2022/06/12 13:37:28;;;;;;;3.40;2.95;;;;;;;30.01;36.29;100719.01;3346508;82;21060;-81
2022/06/12 13:42:26;;;;;;;3.08;2.77;;;;;;;30.41;36.25;100727.14;3366622;85;21066;-81
2022/06/12 13:47:31;;;;;;;3.72;2.80;;;;;;;29.80;35.83;100715.88;3323790;82;21021;-81
2022/06/12 13:52:40;;;;;;;3.15;2.87;;;;;;;29.99;35.86;100718.25;3344177;84;21204;-81
2022/06/12 13:57:35;;;;;;;3.20;2.90;;;;;;;29.33;36.40;100714.81;3321580;85;20960;-81
2022/06/12 14:02:34;;;;;;;3.05;2.85;;;;;;;28.38;36.77;100722.62;3423096;80;27073;-81
2022/06/12 14:07:32;;;;;;;4.37;2.85;;;;;;;27.65;37.78;100721.30;3495893;80;21486;-81
2022/06/12 14:12:25;;;;;;;2.95;2.65;;;;;;;27.12;38.57;100721.83;3486818;80;21252;-81
2022/06/12 14:17:32;;;;;;;2.87;2.60;;;;;;;26.71;38.89;100722.15;3532240;80;21208;-81
2022/06/12 14:22:24;;;;;;;3.77;2.95;;;;;;;26.67;39.48;100716.59;3430241;82;21903;-81
2022/06/12 14:27:23;;;;;;;2.90;2.52;;;;;;;27.27;39.60;100708.17;3478999;82;20896;-81
2022/06/12 14:32:22;;;;;;;3.33;2.50;;;;;;;27.35;39.24;100707.79;3505406;80;21149;-81
2022/06/12 14:37:37;;;;;;;2.87;2.25;;;;;;;27.51;38.32;100703.83;3465250;80;21028;-81
2022/06/12 14:42:29;;;;;;;3.30;2.20;;;;;;;27.90;37.80;100698.13;3486461;81;21062;-81
2022/06/12 14:47:25;;;;;;;3.25;2.22;;;;;;;28.00;36.94;100699.80;3436732;80;21496;-81
2022/06/12 14:52:22;;;;;;;4.85;2.50;;;;;;;27.61;37.72;100697.02;3461013;80;21026;-81
2022/06/12 14:57:14;;;;;;;3.92;2.00;;;;;;;27.27;37.75;100689.48;3498417;79;20927;-81
2022/06/12 15:02:19;;;;;;;2.75;2.33;;;;;;;27.01;38.15;100683.70;3575741;79;21395;-81
2022/06/12 15:07:10;;;;;;;2.70;2.50;;;;;;;26.87;38.42;100680.89;3524218;79;21529;-81
2022/06/12 15:12:02;;;;;;;4.53;2.65;;;;;;;27.56;38.56;100672.36;3567656;79;20992;-81
2022/06/12 15:16:53;;;;;;;3.47;2.65;;;;;;;28.12;37.67;100661.69;3519452;79;20952;-81
2022/06/12 15:21:46;;;;;;;3.47;2.20;;;;;;;28.48;36.74;100660.98;3508406;79;20975;-81
2022/06/12 15:31:49;;;;;;;2.85;1.85;;;;;;;28.64;35.42;100656.95;3568299;79;21022;-81
2022/06/12 15:36:41;;;;;;;2.42;1.90;;;;;;;28.68;34.60;100642.44;3562011;79;21178;-81
2022/06/12 15:41:33;;;;;;;6.65;2.30;;;;;;;28.73;34.28;100647.03;3544236;79;20944;-81
2022/06/12 15:46:25;;;;;;;4.05;1.90;;;;;;;28.69;34.70;100630.80;3531153;79;21438;-81
2022/06/12 15:51:19;;;;;;;3.98;2.22;;;;;;;28.68;34.81;100629.91;3543575;79;20936;-81
2022/06/12 15:56:11;;;;;;;1.75;1.65;;;;;;;28.56;34.34;100631.13;3545184;78;21966;-81
2022/06/12 16:01:04;;;;;;;2.02;1.85;;;;;;;28.51;34.50;100620.69;3495798;79;20980;-81
2022/06/12 16:05:56;;;;;;;2.62;1.80;;;;;;;28.40;33.71;100610.64;3498219;79;20947;-81
2022/06/12 16:10:47;;;;;;;3.45;2.00;;;;;;;28.37;33.54;100609.47;3507521;79;21516;-81
2022/06/12 16:15:38;;;;;;;4.25;2.30;;;;;;;28.34;34.40;100606.48;3515277;79;21306;-81
2022/06/12 16:20:29;;;;;;;2.50;2.30;;;;;;;28.31;34.54;100596.45;3537918;79;20995;-81
2022/06/12 16:25:21;;;;;;;2.02;1.87;;;;;;;28.24;34.70;100595.09;3510169;79;21573;-81
2022/06/12 16:30:18;;;;;;;4.42;2.10;;;;;;;28.21;34.80;100587.28;3542399;79;20930;-81
2022/06/12 16:35:15;;;;;;;3.25;1.98;;;;;;;28.13;33.69;100585.92;3509060;79;20955;-81
2022/06/12 16:40:17;;;;;;;3.40;2.65;;;;;;;28.07;34.71;100585.41;3552172;79;20923;-81
2022/06/12 16:45:10;;;;;;;2.85;2.33;;;;;;;27.96;34.13;100588.70;3533848;79;21982;-81
2022/06/12 16:50:02;;;;;;;2.60;2.00;;;;;;;27.81;34.65;100589.05;3521158;79;20936;-81
2022/06/12 16:54:54;;;;;;;3.55;2.55;;;;;;;27.71;35.15;100590.55;3532551;79;21489;-81
2022/06/12 16:59:50;;;;;;;3.47;1.67;;;;;;;27.61;35.42;100582.67;3543522;79;21482;-81
2022/06/12 17:04:43;;;;;;;3.57;2.00;;;;;;;27.50;35.86;100581.94;3553732;79;20939;-81
2022/06/12 17:09:35;;;;;;;5.33;2.37;;;;;;;27.46;36.17;100583.06;3486730;79;20936;-81
2022/06/12 17:14:26;;;;;;;2.95;2.60;;;;;;;27.38;36.05;100573.67;3539039;79;20904;-81
2022/06/12 17:24:27;;;;;;;5.05;2.12;;;;;;;27.22;37.35;100568.73;3515516;79;20975;-81
2022/06/12 17:29:18;;;;;;;2.60;2.35;;;;;;;27.08;38.95;100572.64;3424424;81;21655;-80
2022/06/12 17:34:10;;;;;;;3.87;2.20;;;;;;;26.87;39.52;100579.53;3451192;81;21390;-80
2022/06/12 17:39:03;;;;;;;3.20;2.35;;;;;;;26.65;39.83;100581.15;3479437;79;22131;-80
2022/06/12 17:43:54;;;;;;;2.37;2.20;;;;;;;26.43;40.30;100584.90;3464337;80;21022;-80
2022/06/12 17:48:45;;;;;;;3.33;2.12;;;;;;;26.16;41.49;100577.81;3504165;80;20912;-80
2022/06/12 17:53:36;;;;;;;17.85;4.15;;;;;;;25.83;41.38;100581.19;3517572;80;20904;-80
2022/06/12 17:58:28;;;;;;;5.92;2.65;;;;;;;25.43;42.54;100580.45;3515177;80;21028;-80
2022/06/12 18:03:19;;;;;;;7.03;2.90;;;;;;;25.05;42.90;100582.19;3482430;81;21099;-80
2022/06/12 18:08:10;;;;;;;5.10;2.58;;;;;;;24.70;44.36;100581.51;3411745;81;21530;-80
2022/06/12 18:13:01;;;;;;;4.58;2.45;;;;;;;24.29;44.61;100580.14;3500237;81;20904;-80
2022/06/12 18:23:03;;;;;;;4.10;2.90;;;;;;;23.63;46.03;100584.57;3521079;81;21467;-80
2022/06/12 18:27:56;;;;;;;4.58;2.92;;;;;;;23.31;46.58;100590.69;3478639;81;20987;-80
2022/06/12 18:32:47;;;;;;;4.50;3.12;;;;;;;22.99;47.24;100583.44;3461045;81;21028;-80
2022/06/12 18:37:40;;;;;;;4.70;3.60;;;;;;;22.72;47.41;100580.00;3467124;81;20931;-80
2022/06/12 18:42:31;;;;;;;4.92;4.42;;;;;;;22.46;47.74;100580.44;3490090;81;21802;-80
2022/06/12 18:47:22;;;;;;;5.72;4.10;;;;;;;22.24;48.42;100582.94;3473838;81;21852;-80
2022/06/12 18:52:13;;;;;;;4.00;3.62;;;;;;;22.07;48.69;100592.74;3489416;79;21022;-80
2022/06/12 18:57:05;;;;;;;7.87;4.72;;;;;;;21.84;49.58;100597.02;3526717;81;20971;-80
2022/06/12 19:01:56;;;;;;;12.68;6.05;;;;;;;21.66;50.10;100606.86;3466177;81;20932;-80
2022/06/12 19:06:47;;;;;;;15.28;6.70;;;;;;;21.45;50.67;100607.02;3480369;81;20975;-80
2022/06/12 19:11:46;;;;;;;14.23;8.95;;;;;;;21.30;51.38;100611.84;3458652;81;21255;-80
2022/06/12 19:16:33;;;;;;;21.40;7.62;;;;;;;21.17;51.89;100610.91;3451403;81;21544;-80
2022/06/12 19:21:24;;;;;;;15.65;10.13;;;;;;;21.01;52.56;100606.52;3451804;81;20962;-80
2022/06/12 19:26:15;;;;;;;18.32;14.33;;;;;;;20.86;52.90;100613.10;3450917;81;20955;-80
2022/06/12 19:31:06;;;;;;;37.78;14.40;;;;;;;20.68;53.25;100611.82;3478261;81;20955;-80
2022/06/12 19:35:59;;;;;;;18.00;11.43;;;;;;;20.51;53.80;100616.17;3453706;81;21440;-80
2022/06/12 19:40:52;;;;;;;17.57;10.38;;;;;;;20.30;53.70;100605.70;3480188;81;20974;-80
2022/06/12 19:45:43;;;;;;;18.82;11.45;;;;;;;20.07;54.52;100608.47;3433684;81;21457;-80
2022/06/12 19:50:34;;;;;;;18.27;10.38;;;;;;;20.01;55.01;100604.64;3433176;81;21015;-79
2022/06/12 19:55:25;;;;;;;16.80;10.13;;;;;;;19.88;55.00;100615.08;3455037;81;21030;-79
2022/06/12 20:00:19;;;;;;;14.58;8.60;;;;;;;19.73;55.61;100609.26;3477783;80;21648;-80
2022/06/12 20:10:23;;;;;;;10.30;8.00;;;;;;;19.55;56.21;100613.60;3505925;80;21008;-80
2022/06/12 20:15:18;;;;;;;14.70;8.63;;;;;;;19.42;56.58;100608.59;3463958;80;20928;-80
2022/06/12 20:20:11;;;;;;;10.60;6.72;;;;;;;19.33;56.84;100606.12;3447402;80;20967;-81
2022/06/12 20:25:04;;;;;;;9.30;5.30;;;;;;;19.21;56.94;100595.86;3521315;80;22192;-81
2022/06/12 20:29:56;;;;;;;6.97;6.28;;;;;;;19.13;57.22;100596.45;3499634;80;21462;-80
2022/06/12 20:34:49;;;;;;;6.78;4.95;;;;;;;19.09;57.59;100603.55;3410573;80;21589;-80
2022/06/12 20:39:40;;;;;;;7.62;5.25;;;;;;;18.98;57.70;100598.50;3449753;80;21015;-80
2022/06/12 20:44:32;;;;;;;7.22;5.37;;;;;;;18.89;57.86;100598.68;3471394;80;21078;-80
2022/06/12 20:49:24;;;;;;;7.08;5.35;;;;;;;18.80;58.25;100594.42;3453648;80;21212;-82
2022/06/12 20:54:16;;;;;;;7.45;5.17;;;;;;;18.68;58.80;100590.70;3488097;80;21030;-81
2022/06/12 20:59:07;;;;;;;7.40;5.20;;;;;;;18.58;58.78;100588.69;3471065;80;20897;-81
2022/06/12 21:03:59;;;;;;;9.40;5.70;;;;;;;18.47;59.03;100581.41;3512990;80;20991;-81
2022/06/12 21:08:50;;;;;;;6.22;5.67;;;;;;;18.35;59.51;100587.78;3448625;80;21544;-81
2022/06/12 21:13:41;;;;;;;8.63;6.15;;;;;;;18.33;59.76;100586.05;3452431;80;21244;-81
2022/06/12 21:18:33;;;;;;;9.90;6.70;;;;;;;18.34;59.75;100585.17;3469824;80;21540;-81
2022/06/12 21:23:24;;;;;;;7.25;6.60;;;;;;;18.31;59.85;100579.49;3440108;80;21007;-82
2022/06/12 21:28:18;;;;;;;6.70;6.12;;;;;;;18.26;60.20;100576.96;3443460;80;22192;-82
2022/06/12 21:33:10;;;;;;;7.95;6.80;;;;;;;18.19;60.41;100574.44;3490647;80;20986;-82
2022/06/12 21:38:03;;;;;;;8.15;6.53;;;;;;;18.09;60.38;100572.42;3491419;80;22274;-81
2022/06/12 21:42:54;;;;;;;9.15;8.03;;;;;;;18.02;60.38;100568.15;3485220;80;20958;-81
2022/06/12 21:47:46;;;;;;;10.93;8.73;;;;;;;18.02;61.01;100574.73;3526263;79;20995;-81
2022/06/12 21:57:46;;;;;;;9.95;8.98;;;;;;;18.11;61.41;100573.26;3503987;80;21211;-82
2022/06/12 22:02:39;;;;;;;12.70;7.90;;;;;;;18.15;61.64;100567.04;3457553;80;22346;-82
2022/06/12 22:07:31;;;;;;;9.05;7.92;;;;;;;18.16;61.68;100566.16;3453148;79;21031;-82
2022/06/12 22:12:22;;;;;;;7.95;7.17;;;;;;;18.13;61.51;100563.57;3479633;80;20960;-82
2022/06/12 22:17:14;;;;;;;9.25;7.35;;;;;;;18.10;61.50;100554.44;3503483;79;21644;-82
2022/06/12 22:22:07;;;;;;;8.13;7.00;;;;;;;18.03;61.33;100554.12;3464675;79;20959;-82
2022/06/12 22:26:59;;;;;;;7.62;6.72;;;;;;;18.01;61.88;100549.30;3480592;80;21416;-82
2022/06/12 22:31:50;;;;;;;8.58;6.75;;;;;;;18.01;62.01;100540.09;3502129;80;20924;-82
2022/06/12 22:36:43;;;;;;;9.58;7.83;;;;;;;17.99;62.07;100543.20;3491528;80;21003;-82
2022/06/12 22:41:34;;;;;;;7.55;6.75;;;;;;;17.94;62.35;100541.09;3515624;80;20955;-82
2022/06/12 22:46:27;;;;;;;6.97;6.37;;;;;;;17.87;62.44;100534.63;3480489;80;20947;-82
2022/06/12 22:51:18;;;;;;;11.83;7.62;;;;;;;17.83;62.85;100533.34;3448762;79;21860;-82
2022/06/12 22:56:09;;;;;;;10.88;7.37;;;;;;;17.80;63.01;100534.27;3499238;80;20952;-82
2022/06/12 23:01:00;;;;;;;7.28;6.58;;;;;;;17.73;63.11;100522.97;3522488;79;20963;-82
2022/06/12 23:05:51;;;;;;;9.75;7.05;;;;;;;17.70;63.10;100510.31;3459026;80;21176;-82
2022/06/12 23:10:43;;;;;;;8.30;7.40;;;;;;;17.62;63.19;100508.27;3483734;80;21510;-82
2022/06/12 23:15:35;;;;;;;7.17;6.47;;;;;;;17.46;63.09;100505.86;3511802;80;22157;-83
2022/06/12 23:20:27;;;;;;;8.20;7.00;;;;;;;17.33;63.49;100501.66;3502610;80;21225;-83
2022/06/12 23:25:18;;;;;;;8.43;7.62;;;;;;;17.29;63.57;100496.03;3442076;80;21459;-83
2022/06/12 23:30:10;;;;;;;7.57;6.77;;;;;;;17.22;63.71;100493.07;3493094;80;21015;-83
2022/06/12 23:35:02;;;;;;;8.48;7.60;;;;;;;17.14;63.69;100491.88;3504344;80;21689;-83
2022/06/12 23:39:53;;;;;;;11.95;8.23;;;;;;;17.08;64.00;100478.38;3462302;80;22779;-83
2022/06/12 23:44:44;;;;;;;8.15;7.35;;;;;;;17.01;64.03;100464.02;3501663;80;20932;-83
2022/06/12 23:49:35;;;;;;;7.80;7.03;;;;;;;16.90;64.11;100461.12;3476879;80;20966;-83